首页
METAR-TAF:

METAR-TAF

机场 :

Wittering, 英格兰

纬度: 52-37N, 经度: 000-28W, 海拔: 84米

当前天气观测

该预报发布于1小时和3分钟前的17:50 UTC
风速3节,风向东南
温度 2°C
湿度 93%
气压 1014 hPa
能见度10公里或以上

METAR: EGXT 191750Z AUTO 14003KT 9999 FEW210/// 02/01 Q1014

时间: 18:53 (18:53 UTC)

预报

该预报发布于5小时和15分钟前的13:38 UTC
预报有效从19日的 15点(UTC)到 19日的 18点(UTC)
风速7节,风向南转南东
能见度10公里或以上
散云层高于3000英尺

TAF: EGXT 191338Z 1915/1918 15007KT 9999 SCT030

超过4000个机场的气象观测和天气预报(METAR&TAF报告)。

可查询的气象台以黄色和红色小点在地图上表示。

将鼠标移到小点上方,可查看气象台名称。

然后点击查看天气观测和预报。

如需切换地图:点击带黑十字的绿色按钮放大地图;点击带横线的绿色按钮缩小地图;或者点击绿色箭头查看邻近地区的地图。


METAR-TAF: